createdAt,value
2018-07-28T00:00:28.827Z,97108.11
2018-07-28T00:02:57.485Z,97099.08
2018-07-28T00:05:26.132Z,97098.30
2018-07-28T00:07:54.772Z,97101.04
2018-07-28T00:10:23.428Z,97095.52
2018-07-28T00:12:52.033Z,97092.62
2018-07-28T00:15:20.715Z,97089.24
2018-07-28T00:17:49.357Z,97091.22
2018-07-28T00:20:18.002Z,97092.95
2018-07-28T00:22:46.647Z,97087.28
2018-07-28T00:25:15.295Z,97091.60
2018-07-28T00:27:43.913Z,97093.36
2018-07-28T00:30:13.547Z,97093.95
2018-07-28T00:32:42.209Z,97099.24
2018-07-28T00:35:10.877Z,97096.29
2018-07-28T00:37:39.562Z,97082.16
2018-07-28T00:40:08.820Z,97086.09
2018-07-28T00:42:37.836Z,97090.20
2018-07-28T00:45:06.986Z,97089.44
2018-07-28T00:47:35.680Z,97081.59
2018-07-28T00:50:04.967Z,97082.37
2018-07-28T00:52:33.652Z,97081.40
2018-07-28T00:55:02.261Z,97041.55
2018-07-28T00:57:30.837Z,97085.28
2018-07-28T00:59:59.558Z,97078.82
2018-07-28T01:02:28.169Z,97078.81
2018-07-28T01:04:56.869Z,97079.22
2018-07-28T01:07:25.480Z,97079.61
2018-07-28T01:09:54.188Z,97079.81
2018-07-28T01:12:22.818Z,97064.30
2018-07-28T01:14:51.703Z,97070.77
2018-07-28T01:17:20.819Z,97066.25
2018-07-28T01:19:49.502Z,97064.50
2018-07-28T01:22:18.251Z,97062.12
2018-07-28T01:24:47.575Z,97062.72
2018-07-28T01:27:16.162Z,97057.23
2018-07-28T01:29:44.896Z,97057.04
2018-07-28T01:32:13.506Z,97064.50
2018-07-28T01:34:42.117Z,97053.70
2018-07-28T01:37:11.120Z,97056.64
2018-07-28T01:39:39.792Z,97055.47
2018-07-28T01:42:08.404Z,97043.28
2018-07-28T01:44:37.055Z,97046.20
2018-07-28T01:47:05.720Z,97039.74
2018-07-28T01:49:34.311Z,97035.02
2018-07-28T01:52:02.874Z,97031.67
2018-07-28T01:54:31.485Z,97034.63
2018-07-28T01:57:00.090Z,97036.78
2018-07-28T01:59:28.711Z,97029.73
2018-07-28T02:01:57.352Z,97024.04
2018-07-28T02:04:26.326Z,97022.84
2018-07-28T02:06:54.916Z,97026.95
2018-07-28T02:09:23.516Z,97028.33
2018-07-28T02:11:52.128Z,97031.47
2018-07-28T02:14:20.847Z,97034.17
2018-07-28T02:16:49.547Z,97025.33
2018-07-28T02:19:18.201Z,97020.06
2018-07-28T02:21:46.840Z,97015.95
2018-07-28T02:24:15.431Z,97014.58
2018-07-28T02:26:44.339Z,97016.89
2018-07-28T02:29:13.000Z,97006.70
2018-07-28T02:31:42.124Z,97005.91
2018-07-28T02:34:10.858Z,96999.20
2018-07-28T02:36:39.484Z,97000.72
2018-07-28T02:39:10.142Z,97004.63
2018-07-28T02:41:39.081Z,97010.16
2018-07-28T02:44:08.162Z,97000.91
2018-07-28T02:46:37.169Z,96998.32
2018-07-28T02:49:06.290Z,97005.17
2018-07-28T02:51:34.898Z,97004.95
2018-07-28T02:54:03.654Z,97004.36
2018-07-28T02:56:39.677Z,97010.41
2018-07-28T02:59:08.300Z,97008.08
2018-07-28T03:01:36.908Z,97009.42
2018-07-28T03:04:05.794Z,97002.92
2018-07-28T03:06:34.535Z,97007.88
2018-07-28T03:09:03.408Z,97002.77
2018-07-28T03:11:32.099Z,97009.17
2018-07-28T03:14:00.922Z,97005.77
2018-07-28T03:16:30.563Z,97006.96
2018-07-28T03:18:59.143Z,97006.37
2018-07-28T03:21:27.696Z,97007.16
2018-07-28T03:23:56.827Z,96999.91
2018-07-28T03:26:25.415Z,96994.46
2018-07-28T03:28:54.176Z,96994.46
2018-07-28T03:31:22.899Z,96994.23
2018-07-28T03:33:51.861Z,96997.73
2018-07-28T03:36:20.433Z,96995.77
2018-07-28T03:38:49.380Z,96997.53
2018-07-28T03:41:18.007Z,96996.66
2018-07-28T03:43:46.627Z,97003.78
2018-07-28T03:46:15.274Z,97012.51
2018-07-28T03:48:43.858Z,97010.56
2018-07-28T03:51:12.451Z,97004.50
2018-07-28T03:53:41.277Z,97014.45
2018-07-28T03:56:09.982Z,97022.29
2018-07-28T03:58:38.579Z,97035.33
2018-07-28T04:01:07.289Z,97025.08
2018-07-28T04:03:35.871Z,97016.88
2018-07-28T04:06:04.500Z,97022.18
2018-07-28T04:08:33.065Z,97024.58
2018-07-28T04:11:01.702Z,97013.05
2018-07-28T04:13:30.547Z,97023.08
2018-07-28T04:15:59.165Z,97022.29
2018-07-28T04:18:27.749Z,97019.17
2018-07-28T04:20:56.509Z,97019.35
2018-07-28T04:23:25.082Z,97020.27
2018-07-28T04:25:53.775Z,97028.60
2018-07-28T04:28:22.547Z,97025.50
2018-07-28T04:30:52.169Z,97027.31
2018-07-28T04:33:20.762Z,97033.58
2018-07-28T04:35:49.311Z,97036.55
2018-07-28T04:38:17.969Z,97035.63
2018-07-28T04:40:46.943Z,97039.73
2018-07-28T04:43:15.543Z,97027.52
2018-07-28T04:45:44.148Z,97035.35
2018-07-28T04:48:13.157Z,97036.31
2018-07-28T04:50:41.889Z,97045.62
2018-07-28T04:53:10.477Z,97036.99
2018-07-28T04:55:39.097Z,97039.03
2018-07-28T04:58:08.261Z,97025.60
2018-07-28T05:00:36.828Z,97026.20
2018-07-28T05:03:05.466Z,97018.25
2018-07-28T05:05:34.675Z,97020.41
2018-07-28T05:08:03.408Z,97024.70
2018-07-28T05:10:32.025Z,97024.91
2018-07-28T05:13:00.651Z,97020.06
2018-07-28T05:15:29.236Z,97017.34
2018-07-28T05:17:57.989Z,97022.69
2018-07-28T05:20:26.595Z,97022.71
2018-07-28T05:22:55.200Z,97020.69
2018-07-28T05:25:23.853Z,97016.31
2018-07-28T05:27:52.443Z,97010.79
2018-07-28T05:30:21.104Z,97013.13
2018-07-28T05:32:49.714Z,97013.88
2018-07-28T05:35:18.291Z,97022.51
2018-07-28T05:37:47.072Z,97015.23
2018-07-28T05:40:15.664Z,97025.83
2018-07-28T05:42:44.339Z,97019.77
2018-07-28T05:45:12.984Z,97019.03
2018-07-28T05:47:41.540Z,97023.27
2018-07-28T05:50:10.483Z,97010.44
2018-07-28T05:52:39.143Z,97010.70
2018-07-28T05:55:08.293Z,97011.82
2018-07-28T05:57:37.632Z,97010.61
2018-07-28T06:00:07.630Z,97005.35
2018-07-28T06:02:36.494Z,97004.61
2018-07-28T06:05:06.324Z,97006.40
2018-07-28T06:07:35.049Z,97010.11
2018-07-28T06:10:04.482Z,97001.41
2018-07-28T06:12:33.175Z,97005.34
2018-07-28T06:15:01.882Z,97006.54
2018-07-28T06:17:30.498Z,96998.78
2018-07-28T06:19:59.142Z,96990.02
2018-07-28T06:22:27.901Z,96985.50
2018-07-28T06:24:56.781Z,96989.42
2018-07-28T06:27:25.408Z,96991.95
2018-07-28T06:29:53.979Z,96985.08
2018-07-28T06:32:22.689Z,96990.13
2018-07-28T06:34:51.673Z,96990.27
2018-07-28T06:37:20.360Z,96993.95
2018-07-28T06:39:48.997Z,96999.53
2018-07-28T06:42:17.619Z,97000.55
2018-07-28T06:44:46.300Z,97007.23
2018-07-28T06:47:14.933Z,97003.25
2018-07-28T06:49:43.570Z,97003.91
2018-07-28T06:52:12.316Z,97007.53
2018-07-28T06:54:41.624Z,97016.09
2018-07-28T06:57:10.283Z,97016.31
2018-07-28T06:59:38.976Z,97030.30
2018-07-28T07:02:07.925Z,97038.92
2018-07-28T07:04:36.639Z,97043.89
2018-07-28T07:07:05.346Z,97058.31
2018-07-28T07:09:34.010Z,97065.69
2018-07-28T07:12:02.629Z,97075.62
2018-07-28T07:14:31.300Z,97075.16
2018-07-28T07:16:59.958Z,97083.73
2018-07-28T07:19:29.341Z,97100.86
2018-07-28T07:21:58.148Z,97119.41
2018-07-28T07:24:26.783Z,97125.76
2018-07-28T07:26:55.516Z,97130.74
2018-07-28T07:29:24.252Z,97133.16
2018-07-28T07:31:53.007Z,97138.27
2018-07-28T07:34:21.622Z,97136.93
2018-07-28T07:36:50.230Z,97137.33
2018-07-28T07:39:19.683Z,97148.69
2018-07-28T07:41:48.383Z,97146.53
2018-07-28T07:44:17.730Z,97147.70
2018-07-28T07:46:47.418Z,97150.45
2018-07-28T07:49:16.064Z,97154.80
2018-07-28T07:51:44.723Z,97156.73
2018-07-28T07:54:14.112Z,97158.51
2018-07-28T07:56:42.759Z,97163.45
2018-07-28T07:59:11.772Z,97166.20
2018-07-28T08:01:40.473Z,97174.25
2018-07-28T08:04:09.283Z,97167.56
2018-07-28T08:06:38.333Z,97181.90
2018-07-28T08:09:08.896Z,97196.23
2018-07-28T08:11:37.695Z,97193.49
2018-07-28T08:14:06.389Z,97195.44
2018-07-28T08:16:35.034Z,97190.52
2018-07-28T08:19:04.112Z,97187.59
2018-07-28T08:21:33.053Z,97182.29
2018-07-28T08:24:02.502Z,97184.23
2018-07-28T08:26:31.197Z,97182.27
2018-07-28T08:29:00.109Z,97174.38
2018-07-28T08:31:28.830Z,97174.08
2018-07-28T08:33:57.636Z,97161.84
2018-07-28T08:36:26.348Z,97147.88
2018-07-28T08:38:55.298Z,97138.95
2018-07-28T08:41:23.998Z,97138.67
2018-07-28T08:43:52.681Z,97146.75
2018-07-28T08:46:22.022Z,97152.42
2018-07-28T08:48:50.597Z,97161.41
2018-07-28T08:51:19.422Z,97169.41
2018-07-28T08:53:48.062Z,97178.98
2018-07-28T08:56:16.731Z,97181.11
2018-07-28T08:58:45.408Z,97183.59
2018-07-28T09:01:14.103Z,97186.53
2018-07-28T09:03:43.467Z,97187.38
2018-07-28T09:06:12.169Z,97194.37
2018-07-28T09:08:40.882Z,97187.52
2018-07-28T09:11:09.572Z,97192.84
2018-07-28T09:13:40.057Z,97195.63
2018-07-28T09:16:09.122Z,97190.34
2018-07-28T09:18:38.231Z,97195.56
2018-07-28T09:21:07.737Z,97193.02
2018-07-28T09:23:36.724Z,97193.82
2018-07-28T09:26:06.212Z,97205.97
2018-07-28T09:28:34.933Z,97200.04
2018-07-28T09:31:03.697Z,97201.59
2018-07-28T09:33:32.764Z,97206.38
2018-07-28T09:36:01.615Z,97195.30
2018-07-28T09:38:30.361Z,97187.48
2018-07-28T09:40:59.837Z,97187.84
2018-07-28T09:43:28.981Z,97188.56
2018-07-28T09:45:58.418Z,97185.16
2018-07-28T09:48:27.817Z,97181.47
2018-07-28T09:50:56.440Z,97173.83
2018-07-28T09:53:25.204Z,97177.28
2018-07-28T09:55:53.849Z,97184.97
2018-07-28T09:58:22.940Z,97174.88
2018-07-28T10:00:57.093Z,97177.98
2018-07-28T10:03:26.495Z,97177.61
2018-07-28T10:05:55.248Z,97176.00
2018-07-28T10:08:23.970Z,97176.59
2018-07-28T10:10:52.845Z,97180.09
2018-07-28T10:13:21.724Z,97180.69
2018-07-28T10:15:50.902Z,97184.19
2018-07-28T10:18:19.622Z,97182.44
2018-07-28T10:20:49.548Z,97182.45
2018-07-28T10:23:18.523Z,97184.33
2018-07-28T10:25:47.337Z,97179.59
2018-07-28T10:28:16.476Z,97173.80
2018-07-28T10:30:46.189Z,97183.18
2018-07-28T10:33:14.943Z,97181.61
2018-07-28T10:35:43.704Z,97174.06
2018-07-28T10:38:12.323Z,97169.09
2018-07-28T10:40:40.951Z,97173.00
2018-07-28T10:43:09.655Z,97178.48
2018-07-28T10:45:38.400Z,97181.36
2018-07-28T10:48:07.767Z,97176.09
2018-07-28T10:50:36.362Z,97170.00
2018-07-28T10:53:05.116Z,97165.71
2018-07-28T10:55:33.819Z,97158.36
2018-07-28T10:58:02.454Z,97154.71
2018-07-28T11:00:31.330Z,97155.77
2018-07-28T11:02:59.937Z,97155.41
2018-07-28T11:05:29.533Z,97157.12
2018-07-28T11:07:58.145Z,97156.31
2018-07-28T11:10:26.806Z,97162.28
2018-07-28T11:12:55.414Z,97157.53
2018-07-28T11:15:24.129Z,97160.88
2018-07-28T11:17:52.763Z,97156.56
2018-07-28T11:20:21.389Z,97162.14
2018-07-28T11:22:50.022Z,97158.80
2018-07-28T11:25:18.699Z,97165.16
2018-07-28T11:27:47.439Z,97162.11
2018-07-28T11:30:16.261Z,97156.31
2018-07-28T11:32:56.757Z,97163.72
2018-07-28T11:35:36.644Z,97163.33
2018-07-28T11:38:41.842Z,97151.59
2018-07-28T11:41:21.889Z,97154.91
2018-07-28T11:44:01.637Z,97159.93
2018-07-28T11:46:30.265Z,97160.17
2018-07-28T11:48:58.836Z,97157.00
2018-07-28T11:51:27.997Z,97157.66
2018-07-28T11:53:56.659Z,97161.44
2018-07-28T11:56:25.302Z,97154.62
2018-07-28T11:58:53.935Z,97160.17
2018-07-28T12:01:23.127Z,97161.39
2018-07-28T12:03:51.764Z,97154.10
2018-07-28T12:06:21.033Z,97148.72
2018-07-28T12:08:49.752Z,97142.94
2018-07-28T12:11:18.560Z,97155.06
2018-07-28T12:13:47.141Z,97163.56
2018-07-28T12:16:15.749Z,97158.73
2018-07-28T12:18:44.435Z,97159.56
2018-07-28T12:21:13.225Z,97163.04
2018-07-28T12:23:42.204Z,97157.52
2018-07-28T12:26:10.787Z,97145.73
2018-07-28T12:28:40.112Z,97140.05
2018-07-28T12:31:09.519Z,97153.21
2018-07-28T12:33:39.559Z,97158.13
2018-07-28T12:36:08.740Z,97155.27
2018-07-28T12:38:37.473Z,97155.14
2018-07-28T12:41:06.271Z,97160.52
2018-07-28T12:43:35.093Z,97148.16
2018-07-28T12:46:03.761Z,97148.92
2018-07-28T12:48:32.487Z,97147.30
2018-07-28T12:51:01.341Z,97142.02
2018-07-28T12:53:29.946Z,97141.30
2018-07-28T12:55:58.611Z,97106.00
2018-07-28T12:58:27.305Z,97138.16
2018-07-28T13:00:55.954Z,97136.91
2018-07-28T13:03:25.223Z,97145.66
2018-07-28T13:05:53.934Z,97155.59
2018-07-28T13:08:23.296Z,97154.66
2018-07-28T13:10:51.966Z,97162.93
2018-07-28T13:13:20.582Z,97159.61
2018-07-28T13:15:49.230Z,97167.23
2018-07-28T13:18:18.698Z,97173.27
2018-07-28T13:20:47.445Z,97176.73
2018-07-28T13:23:16.116Z,97168.56
2018-07-28T13:25:44.767Z,97164.59
2018-07-28T13:28:13.400Z,97159.63
2018-07-28T13:30:42.413Z,97167.63
2018-07-28T13:33:11.016Z,97170.73
2018-07-28T13:35:40.721Z,97178.12
2018-07-28T13:38:09.790Z,97201.67
2018-07-28T13:40:38.639Z,97188.48
2018-07-28T13:43:07.353Z,97200.28
2018-07-28T13:45:35.984Z,97195.63
2018-07-28T13:48:04.957Z,97209.34
2018-07-28T13:50:33.684Z,97199.13
2018-07-28T13:53:02.465Z,97213.68
2018-07-28T13:55:31.081Z,97214.47
2018-07-28T13:57:59.751Z,97216.03
2018-07-28T14:00:28.813Z,97221.59
2018-07-28T14:02:57.776Z,97221.39
2018-07-28T14:05:26.402Z,97211.91
2018-07-28T14:07:55.039Z,97223.62
2018-07-28T14:10:23.670Z,97209.95
2018-07-28T14:12:52.325Z,97221.02
2018-07-28T14:15:21.113Z,97219.23
2018-07-28T14:17:49.858Z,97224.56
2018-07-28T14:20:18.570Z,97236.61
2018-07-28T14:22:47.649Z,97231.17
2018-07-28T14:25:16.409Z,97241.55
2018-07-28T14:27:45.059Z,97250.22
2018-07-28T14:30:13.877Z,97245.20
2018-07-28T14:32:42.591Z,97249.75
2018-07-28T14:35:12.837Z,97253.53
2018-07-28T14:37:43.645Z,97248.03
2018-07-28T14:40:12.286Z,97251.50
2018-07-28T14:42:40.925Z,97243.67
2018-07-28T14:45:11.157Z,97249.50
2018-07-28T14:47:40.167Z,97251.06
2018-07-28T14:50:08.883Z,97253.66
2018-07-28T14:52:37.584Z,97259.66
2018-07-28T14:55:06.381Z,97253.34
2018-07-28T14:57:35.082Z,97251.61
2018-07-28T15:00:03.930Z,97258.45
2018-07-28T15:02:32.602Z,97260.93
2018-07-28T15:05:01.268Z,97250.05
2018-07-28T15:07:30.735Z,97272.84
2018-07-28T15:09:59.353Z,97270.78
2018-07-28T15:12:28.655Z,97277.99
2018-07-28T15:14:57.816Z,97273.41
2018-07-28T15:17:26.414Z,97278.84
2018-07-28T15:19:55.988Z,97277.15
2018-07-28T15:22:31.167Z,97284.38
2018-07-28T15:25:00.942Z,97295.42
2018-07-28T15:27:29.732Z,97296.84
2018-07-28T15:29:59.729Z,97304.43
2018-07-28T15:32:29.412Z,97307.98
2018-07-28T15:34:58.283Z,97306.08
2018-07-28T15:37:27.873Z,97301.89
2018-07-28T15:39:56.636Z,97305.58
2018-07-28T15:42:25.422Z,97309.20
2018-07-28T15:44:54.193Z,97305.84
2018-07-28T15:47:22.932Z,97301.45
2018-07-28T15:49:51.946Z,97302.61
2018-07-28T15:52:20.741Z,97303.14
2018-07-28T15:54:50.163Z,97305.90
2018-07-28T15:57:19.190Z,97312.17
2018-07-28T15:59:49.381Z,97313.16
2018-07-28T16:02:18.361Z,97312.42
2018-07-28T16:04:47.634Z,97312.80
2018-07-28T16:07:17.379Z,97316.81
2018-07-28T16:09:46.036Z,97323.64
2018-07-28T16:12:14.774Z,97324.19
2018-07-28T16:14:43.818Z,97329.41
2018-07-28T16:17:12.564Z,97328.69
2018-07-28T16:19:41.178Z,97330.28
2018-07-28T16:22:09.880Z,97332.23
2018-07-28T16:24:38.561Z,97337.23
2018-07-28T16:27:07.235Z,97339.89
2018-07-28T16:29:35.892Z,97341.48
2018-07-28T16:32:04.814Z,97343.36
2018-07-28T16:34:33.481Z,97346.47
2018-07-28T16:37:02.902Z,97356.89
2018-07-28T16:39:31.629Z,97355.30
2018-07-28T16:42:00.335Z,97360.41
2018-07-28T16:44:29.847Z,97364.67
2018-07-28T16:46:59.282Z,97368.92
2018-07-28T16:49:28.085Z,97367.07
2018-07-28T16:51:56.739Z,97369.31
2018-07-28T16:54:25.512Z,97374.59
2018-07-28T16:56:57.432Z,97377.73
2018-07-28T16:59:28.525Z,97378.43
2018-07-28T17:01:58.636Z,97376.94
2018-07-28T17:04:34.508Z,97384.30
2018-07-28T17:07:10.959Z,97395.83
2018-07-28T17:09:40.591Z,97396.83
2018-07-28T17:12:11.413Z,97386.78
2018-07-28T17:15:03.755Z,97400.59
2018-07-28T17:17:33.563Z,97396.23
2018-07-28T17:20:04.121Z,97393.95
2018-07-28T17:27:57.086Z,97393.11
2018-07-28T17:30:27.644Z,97388.16
2018-07-28T17:32:58.658Z,97265.86
2018-07-28T17:35:30.329Z,97398.99
2018-07-28T17:37:59.498Z,97401.98
2018-07-28T17:43:21.676Z,97410.97
2018-07-28T17:45:50.555Z,97408.64
2018-07-28T17:48:19.360Z,97414.28
2018-07-28T17:50:48.061Z,97420.97
2018-07-28T17:53:16.766Z,97413.44
2018-07-28T17:55:46.136Z,97414.45
2018-07-28T17:58:15.333Z,97417.42
2018-07-28T18:00:44.039Z,97420.61
2018-07-28T18:03:12.781Z,97422.41
2018-07-28T18:05:42.128Z,97425.35
2018-07-28T18:08:10.794Z,97432.21
2018-07-28T18:10:40.405Z,97431.06
2018-07-28T18:13:09.306Z,97428.70
2018-07-28T18:15:38.247Z,97438.33
2018-07-28T18:18:06.992Z,97443.05
2018-07-28T18:20:36.081Z,97443.22
2018-07-28T18:23:05.330Z,97448.50
2018-07-28T18:25:34.431Z,97452.01
2018-07-28T18:28:03.441Z,97453.80
2018-07-28T18:30:32.192Z,97461.30
2018-07-28T18:33:01.085Z,97456.36
2018-07-28T18:35:29.873Z,97466.59
2018-07-28T18:37:59.437Z,97467.98
2018-07-28T18:40:29.023Z,97469.53
2018-07-28T18:42:58.085Z,97473.43
2018-07-28T18:45:27.723Z,97477.27
2018-07-28T18:47:56.544Z,97471.62
2018-07-28T18:50:25.277Z,97480.80
2018-07-28T18:52:54.085Z,97478.46
2018-07-28T18:55:23.611Z,97471.78
2018-07-28T18:57:52.325Z,97475.74
2018-07-28T19:00:21.735Z,97475.16
2018-07-28T19:02:50.468Z,97478.86
2018-07-28T19:05:19.260Z,97483.25
2018-07-28T19:07:48.095Z,97477.01
2018-07-28T19:10:16.860Z,97486.83
2018-07-28T19:12:50.922Z,97488.03
2018-07-28T19:15:19.721Z,97495.69
2018-07-28T19:18:53.188Z,97498.83
2018-07-28T19:21:21.891Z,97500.55
2018-07-28T19:23:55.992Z,97505.42
2018-07-28T19:26:24.716Z,97505.27
2018-07-28T19:28:58.732Z,97504.11
2018-07-28T19:31:27.459Z,97510.39
2018-07-28T19:33:56.191Z,97510.98
2018-07-28T19:36:30.103Z,97522.59
2018-07-28T19:38:58.885Z,97518.45
2018-07-28T19:41:27.617Z,97528.28
2018-07-28T19:43:56.418Z,97521.97
2018-07-28T19:46:25.173Z,97520.80
2018-07-28T19:48:54.118Z,97529.03
2018-07-28T19:51:22.895Z,97526.26
2018-07-28T19:53:51.640Z,97537.78
2018-07-28T19:56:20.930Z,97534.14
2018-07-28T19:58:49.742Z,97541.79
2018-07-28T20:01:18.517Z,97540.81
2018-07-28T20:03:47.335Z,97546.32
2018-07-28T20:06:16.138Z,97550.61
2018-07-28T20:08:44.850Z,97544.13
2018-07-28T20:11:14.278Z,97549.66
2018-07-28T20:13:43.016Z,97550.84
2018-07-28T20:16:11.800Z,97553.58
2018-07-28T20:18:40.856Z,97548.60
2018-07-28T20:21:09.760Z,97550.72
2018-07-28T20:23:38.499Z,97561.31
2018-07-28T20:26:08.214Z,97565.22
2018-07-28T20:28:37.255Z,97562.39
2018-07-28T20:31:06.000Z,97567.28
2018-07-28T20:33:34.815Z,97569.09
2018-07-28T20:36:03.738Z,97565.58
2018-07-28T20:38:32.473Z,97568.73
2018-07-28T20:41:01.140Z,97570.52
2018-07-28T20:43:30.417Z,97570.13
2018-07-28T20:45:59.238Z,97566.41
2018-07-28T20:48:28.769Z,97571.73
2018-07-28T20:50:57.837Z,97572.52
2018-07-28T20:53:31.078Z,97576.87
2018-07-28T20:55:59.884Z,97578.45
2018-07-28T20:58:28.622Z,97586.67
2018-07-28T21:00:57.711Z,97575.94
2018-07-28T21:03:27.020Z,97580.53
2018-07-28T21:05:55.824Z,97578.98
2018-07-28T21:08:24.707Z,97580.53
2018-07-28T21:10:53.472Z,97579.10
2018-07-28T21:13:22.649Z,97579.89
2018-07-28T21:15:51.383Z,97580.72
2018-07-28T21:18:20.484Z,97584.87
2018-07-28T21:20:49.371Z,97587.20
2018-07-28T21:23:18.865Z,97579.96
2018-07-28T21:25:47.620Z,97583.09
2018-07-28T21:28:16.332Z,97577.80
2018-07-28T21:30:45.921Z,97583.30
2018-07-28T21:33:14.793Z,97586.83
2018-07-28T21:35:43.513Z,97585.11
2018-07-28T21:38:12.483Z,97590.72
2018-07-28T21:40:41.263Z,97598.17
2018-07-28T21:43:10.025Z,97584.62
2018-07-28T21:45:38.954Z,97590.31
2018-07-28T21:48:07.776Z,97596.22
2018-07-28T21:50:37.130Z,97604.41
2018-07-28T21:53:06.011Z,97600.08
2018-07-28T21:55:34.747Z,97598.72
2018-07-28T21:58:10.080Z,97595.66
2018-07-28T22:00:44.197Z,97605.99
2018-07-28T22:03:13.232Z,97606.83
2018-07-28T22:05:42.231Z,97606.36
2018-07-28T22:08:10.976Z,97607.64
2018-07-28T22:10:39.693Z,97605.89
2018-07-28T22:13:08.857Z,97612.81
2018-07-28T22:15:38.431Z,97612.02
2018-07-28T22:18:07.657Z,97614.27
2018-07-28T22:20:37.178Z,97619.60
2018-07-28T22:23:06.072Z,97614.32
2018-07-28T22:25:34.834Z,97611.14
2018-07-28T22:28:03.601Z,97617.02
2018-07-28T22:30:33.412Z,97615.84
2018-07-28T22:33:02.275Z,97619.92
2018-07-28T22:35:31.484Z,97612.77
2018-07-28T22:38:00.689Z,97619.47
2018-07-28T22:40:29.424Z,97618.24
2018-07-28T22:42:58.193Z,97626.31
2018-07-28T22:45:26.810Z,97613.17
2018-07-28T22:47:55.505Z,97620.78
2018-07-28T22:50:24.210Z,97623.91
2018-07-28T22:52:52.955Z,97627.66
2018-07-28T22:55:22.884Z,97632.02
2018-07-28T22:57:51.618Z,97631.32
2018-07-28T23:00:20.235Z,97619.39
2018-07-28T23:02:49.310Z,97629.45
2018-07-28T23:05:18.921Z,97624.14
2018-07-28T23:07:47.642Z,97630.80
2018-07-28T23:10:16.543Z,97633.54
2018-07-28T23:12:45.273Z,97635.86
2018-07-28T23:15:13.924Z,97636.70
2018-07-28T23:17:43.466Z,97629.80
2018-07-28T23:20:15.122Z,97631.37
2018-07-28T23:22:43.991Z,97632.58
2018-07-28T23:25:12.656Z,97633.78
2018-07-28T23:27:41.309Z,97631.63
2018-07-28T23:30:12.381Z,97633.74
2018-07-28T23:32:41.711Z,97626.99
2018-07-28T23:35:10.363Z,97633.77
2018-07-28T23:37:39.062Z,97630.40
2018-07-28T23:40:07.866Z,97636.45
2018-07-28T23:42:37.557Z,97633.08
2018-07-28T23:45:06.562Z,97648.05
2018-07-28T23:47:35.332Z,97647.36
2018-07-28T23:50:05.208Z,97647.89
2018-07-28T23:52:42.363Z,97642.91
2018-07-28T23:55:11.242Z,97644.58
2018-07-28T23:57:40.105Z,97639.94
